Carnival Valor — H3VR — position and weather

sailwx.info

Track history (hours):
 
Tides and Currents Weather Stations Pressure Air Temp Water Temp Dewpoint Dewpoint Depression Visibility Wind Speed Wind Dir Waves Ship Positions

Carnival Valor

Last reported at 2019-Jun-15 22:13 UTC. Time now 2019-Jun-16 01:16 UTC.
Position N 20°36' W 086°58'.

Type: Ship. MMSI: 354298000.

Date/timePositionNaut miles runAvg speedWind from/ knotsBaromVisibWave heightAir tempDewpointWater temp
2019-Jun-15 22:13N 20°36' W 086°58'418.8
2019-Jun-15 22:00N 20°33' W 087°00'4 9.0
2019-Jun-15 21:31N 20°29' W 086°59'0 0.1
2019-Jun-15 20:58N 20°29' W 086°59'0 0.0
2019-Jun-15 20:31N 20°29' W 086°59'0 0.0
2019-Jun-15 20:00N 20°29' W 086°59'0 0.0
2019-Jun-15 19:30N 20°29' W 086°59'0 0.0
2019-Jun-15 19:00N 20°29' W 086°59'0 0.0
2019-Jun-15 18:30N 20°29' W 086°59'0 0.0
2019-Jun-15 17:59N 20°29' W 086°59'0 0.0
2019-Jun-15 17:29N 20°29' W 086°59'0 0.0
2019-Jun-15 16:59N 20°29' W 086°59'0 0.0
2019-Jun-15 16:29N 20°29' W 086°59'0 0.0
2019-Jun-15 15:59N 20°29' W 086°59'0 0.0
2019-Jun-15 15:28N 20°29' W 086°59'0 0.0
2019-Jun-15 14:58N 20°29' W 086°59'0 0.0
2019-Jun-15 14:28N 20°29' W 086°59'0 0.0
2019-Jun-15 13:58N 20°29' W 086°59'0 0.0
2019-Jun-15 13:31N 20°29' W 086°59'0 0.0
2019-Jun-15 13:00N 20°29' W 086°59'0 0.0
2019-Jun-15 12:27N 20°29' W 086°59'0 0.0
2019-Jun-15 12:00N 20°29' W 086°59'1 1.1
2019-Jun-15 11:30N 20°29' W 086°59'4 8.7
2019-Jun-15 11:00N 20°33' W 086°60'612.8
2019-Jun-15 10:30N 20°39' W 086°56'39216.7
2019-Jun-14 11:00N 27°00' W 088°36'5618.8 200 / 101017.710.8 27.024.126.0
2019-Jun-14 08:00N 27°54' W 088°54'11715.0 120 / 101016.6 28.025.230.0
2019-Jun-14 00:09N 29°38' W 089°56'513.5
2019-Jun-13 23:47N 29°42' W 089°59'514.7
2019-Jun-13 23:27N 29°47' W 090°01'714.8
2019-Jun-13 22:59N 29°53' W 089°58'3 6.4
2019-Jun-13 22:29N 29°55' W 089°56'714.1
2019-Jun-13 22:00N 29°58' W 090°03'1 2.6
2019-Jun-13 21:30N 29°56' W 090°04'0 0.0
2019-Jun-13 21:00N 29°56' W 090°04'0 0.0
2019-Jun-13 20:30N 29°56' W 090°04'0 0.0
2019-Jun-13 19:59N 29°56' W 090°04'0 0.0
2019-Jun-13 19:29N 29°56' W 090°04'0 0.0
2019-Jun-13 18:59N 29°56' W 090°04'0 0.0
2019-Jun-13 18:29N 29°56' W 090°04'0 0.0
2019-Jun-13 17:58N 29°56' W 090°04'0 0.0
2019-Jun-13 17:28N 29°56' W 090°04'0 0.0
2019-Jun-13 16:58N 29°56' W 090°04'0 0.0
2019-Jun-13 16:28N 29°56' W 090°04'0 0.0
2019-Jun-13 15:58N 29°56' W 090°04'0 0.0
2019-Jun-13 15:30N 29°56' W 090°04'0 0.0
2019-Jun-13 15:00N 29°56' W 090°04'0 0.0
2019-Jun-13 14:30N 29°56' W 090°04'0 0.0
2019-Jun-13 14:00N 29°56' W 090°04'0 0.0
2019-Jun-13 13:30N 29°56' W 090°04'0 0.0
2019-Jun-13 12:58N 29°56' W 090°04'0 0.0
2019-Jun-13 12:27N 29°56' W 090°04'0 0.2
2019-Jun-13 11:59N 29°56' W 090°04'3 7.2
2019-Jun-13 11:30N 29°56' W 089°60'611.0
2019-Jun-13 11:00N 29°53' W 089°54'4 8.2
2019-Jun-13 10:30N 29°52' W 089°59'712.4
2019-Jun-13 09:59N 29°46' W 090°01'611.7
2019-Jun-13 09:30N 29°41' W 089°58'611.2
2019-Jun-13 08:57N 29°37' W 089°53'612.2
2019-Jun-13 08:30N 29°34' W 089°47'45714.4
2019-Jun-12 00:48N 21°57' W 089°26'915.6
2019-Jun-12 00:14N 21°49' W 089°31'615.5
2019-Jun-11 23:51N 21°44' W 089°34'515.5
2019-Jun-11 23:30N 21°39' W 089°36'915.5
2019-Jun-11 22:55N 21°30' W 089°40'513.2
2019-Jun-11 22:30N 21°25' W 089°41'5 9.6
2019-Jun-11 22:00N 21°21' W 089°41'0 0.0
2019-Jun-11 21:29N 21°21' W 089°41'0 0.0
2019-Jun-11 20:56N 21°21' W 089°41'0 0.0
2019-Jun-11 20:29N 21°21' W 089°41'0 0.0
2019-Jun-11 19:59N 21°21' W 089°41'0 0.0
2019-Jun-11 19:28N 21°21' W 089°41'0 0.0
2019-Jun-11 18:58N 21°21' W 089°41'0 0.0
2019-Jun-11 18:28N 21°21' W 089°41'0 0.0
2019-Jun-11 17:58N 21°21' W 089°41'0 0.0
2019-Jun-11 17:28N 21°21' W 089°41'0 0.0
2019-Jun-11 17:00N 21°21' W 089°41'0 0.0
2019-Jun-11 16:30N 21°21' W 089°41'0 0.0
2019-Jun-11 15:57N 21°21' W 089°41'0 0.0
2019-Jun-11 15:30N 21°21' W 089°41'0 0.0
2019-Jun-11 14:59N 21°21' W 089°41'0 0.0
2019-Jun-11 14:29N 21°21' W 089°41'0 0.0
2019-Jun-11 13:59N 21°21' W 089°41'0 0.2
2019-Jun-11 13:30N 21°20' W 089°41'5 9.7
2019-Jun-11 13:00N 21°25' W 089°41'612.7
2019-Jun-11 12:31N 21°31' W 089°38'714.9
2019-Jun-11 12:00N 21°37' W 089°33'815.3
2019-Jun-11 11:30N 21°43' W 089°28'918.5
2019-Jun-11 11:00N 21°44' W 089°18'5117.0
2019-Jun-11 08:00N 21°54' W 088°24'11212.5 160 / 151014.7 28.025.227.0
2019-Jun-10 23:00N 20°36' W 086°57'510.9
2019-Jun-10 22:30N 20°32' W 087°00'3 6.8
2019-Jun-10 22:00N 20°29' W 086°59'0 0.0
2019-Jun-10 21:29N 20°29' W 086°59'0 0.0
2019-Jun-10 20:59N 20°29' W 086°59'0 0.0
2019-Jun-10 20:29N 20°29' W 086°59'0 0.0
2019-Jun-10 19:58N 20°29' W 086°59'0 0.0
2019-Jun-10 19:28N 20°29' W 086°59'0 0.0
2019-Jun-10 18:55N 20°29' W 086°59'0 0.0
2019-Jun-10 18:28N 20°29' W 086°59'0 0.0
2019-Jun-10 17:48N 20°29' W 086°59'0 0.0
2019-Jun-10 17:30N 20°29' W 086°59'0 0.0
2019-Jun-10 17:00N 20°29' W 086°59'0 0.0
2019-Jun-10 16:30N 20°29' W 086°59'0 0.0
2019-Jun-10 16:00N 20°29' W 086°59'0 0.0
2019-Jun-10 15:29N 20°29' W 086°59'0 0.0
2019-Jun-10 14:59N 20°29' W 086°59'0 0.0
2019-Jun-10 14:29N 20°29' W 086°59'0 0.0
2019-Jun-10 13:59N 20°29' W 086°59'0 0.0
2019-Jun-10 13:26N 20°29' W 086°59'0 0.0
2019-Jun-10 12:59N 20°29' W 086°59'1 1.8
2019-Jun-10 12:30N 20°29' W 086°59'4 8.0
2019-Jun-10 12:00N 20°33' W 086°60'510.4
2019-Jun-10 11:30N 20°38' W 086°57'510.0
2019-Jun-10 10:58N 20°42' W 086°53'55915.6
2019-Jun-08 23:05N 29°37' W 089°54'214.2
2019-Jun-08 22:56N 29°38' W 089°56'713.7
2019-Jun-08 22:27N 29°44' W 089°60'714.5
2019-Jun-08 22:00N 29°51' W 089°59'5 9.9
2019-Jun-08 21:30N 29°53' W 089°54'612.7
2019-Jun-08 21:00N 29°57' W 090°00'3 5.8
2019-Jun-08 20:30N 29°56' W 090°04'0 0.0
2019-Jun-08 19:58N 29°56' W 090°04'0 0.0
2019-Jun-08 19:27N 29°56' W 090°04'0 0.0
2019-Jun-08 18:58N 29°56' W 090°04'0 0.0
2019-Jun-08 18:28N 29°56' W 090°04'0 0.0
2019-Jun-08 18:00N 29°56' W 090°04'0 0.0
2019-Jun-08 17:30N 29°56' W 090°04'0 0.0
2019-Jun-08 17:00N 29°56' W 090°04'0 0.0
2019-Jun-08 16:30N 29°56' W 090°04'0 0.0
2019-Jun-08 15:56N 29°56' W 090°04'0 0.0
2019-Jun-08 15:29N 29°56' W 090°04'0 0.0
2019-Jun-08 14:59N 29°56' W 090°04'0 0.0
2019-Jun-08 14:26N 29°56' W 090°04'0 0.0
2019-Jun-08 13:59N 29°56' W 090°04'0 0.0
2019-Jun-08 13:28N 29°56' W 090°04'0 0.0
2019-Jun-08 12:58N 29°56' W 090°04'0 0.0
2019-Jun-08 12:28N 29°56' W 090°04'0 0.0
2019-Jun-08 11:58N 29°56' W 090°04'0 0.9
2019-Jun-08 11:30N 29°57' W 090°04'4 8.0
2019-Jun-08 11:00N 29°56' W 089°59'5 9.8
2019-Jun-08 10:30N 29°53' W 089°54'4 8.2
2019-Jun-08 10:00N 29°52' W 089°59'612.5
2019-Jun-08 09:30N 29°46' W 090°01'611.8
2019-Jun-08 09:00N 29°41' W 089°58'610.4
2019-Jun-08 08:27N 29°37' W 089°53'49613.2
2019-Jun-06 18:50N 21°21' W 089°41'0 0.0
2019-Jun-06 18:29N 21°21' W 089°41'0 0.0
2019-Jun-06 17:58N 21°21' W 089°41'0 0.0
2019-Jun-06 17:28N 21°21' W 089°41'0 0.0
2019-Jun-06 16:58N 21°21' W 089°41'0 0.0
2019-Jun-06 16:28N 21°21' W 089°41'0 0.0
2019-Jun-06 15:58N 21°21' W 089°41'0 0.0
2019-Jun-06 15:30N 21°21' W 089°41'0 0.0
2019-Jun-06 15:00N 21°21' W 089°41'0 0.0
2019-Jun-06 14:30N 21°21' W 089°41'0 0.0
2019-Jun-06 14:00N 21°21' W 089°41'0 0.2
2019-Jun-06 13:30N 21°20' W 089°41'5 9.3
2019-Jun-06 13:01N 21°25' W 089°41'612.4
2019-Jun-06 12:30N 21°31' W 089°38'713.8
2019-Jun-06 12:00N 21°36' W 089°34'915.6
2019-Jun-06 11:27N 21°42' W 089°27'716.1
2019-Jun-06 10:59N 21°44' W 089°20'916.1
2019-Jun-06 10:27N 21°47' W 089°10'818.4
2019-Jun-06 10:00N 21°48' W 089°02'1018.6
2019-Jun-06 09:29N 21°51' W 088°52'1118.7
2019-Jun-06 08:54N 21°53' W 088°41'12312.1
2019-Jun-05 22:45N 20°36' W 086°58'418.1
2019-Jun-05 22:30N 20°33' W 087°00'  
Track history (hours):
 
Tides and Currents Weather Stations Pressure Air Temp Water Temp Dewpoint Dewpoint Depression Visibility Wind Speed Wind Dir Waves Ship Positions

Carnival Valor

Last reported at 2019-Jun-15 22:13 UTC. Time now 2019-Jun-16 01:16 UTC.
Position N 20°36' W 086°58'.

Type: Ship. MMSI: 354298000.

Date/timePositionNaut miles runAvg speedWind from/ knotsBaromVisibWave heightAir tempDewpointWater temp
2019-Jun-15 22:13N 20°36' W 086°58'418.8
2019-Jun-15 22:00N 20°33' W 087°00'4 9.0
2019-Jun-15 21:31N 20°29' W 086°59'0 0.1
2019-Jun-15 20:58N 20°29' W 086°59'0 0.0
2019-Jun-15 20:31N 20°29' W 086°59'0 0.0
2019-Jun-15 20:00N 20°29' W 086°59'0 0.0
2019-Jun-15 19:30N 20°29' W 086°59'0 0.0
2019-Jun-15 19:00N 20°29' W 086°59'0 0.0
2019-Jun-15 18:30N 20°29' W 086°59'0 0.0
2019-Jun-15 17:59N 20°29' W 086°59'0 0.0
2019-Jun-15 17:29N 20°29' W 086°59'0 0.0
2019-Jun-15 16:59N 20°29' W 086°59'0 0.0
2019-Jun-15 16:29N 20°29' W 086°59'0 0.0
2019-Jun-15 15:59N 20°29' W 086°59'0 0.0
2019-Jun-15 15:28N 20°29' W 086°59'0 0.0
2019-Jun-15 14:58N 20°29' W 086°59'0 0.0
2019-Jun-15 14:28N 20°29' W 086°59'0 0.0
2019-Jun-15 13:58N 20°29' W 086°59'0 0.0
2019-Jun-15 13:31N 20°29' W 086°59'0 0.0
2019-Jun-15 13:00N 20°29' W 086°59'0 0.0
2019-Jun-15 12:27N 20°29' W 086°59'0 0.0
2019-Jun-15 12:00N 20°29' W 086°59'1 1.1
2019-Jun-15 11:30N 20°29' W 086°59'4 8.7
2019-Jun-15 11:00N 20°33' W 086°60'612.8
2019-Jun-15 10:30N 20°39' W 086°56'39216.7
2019-Jun-14 11:00N 27°00' W 088°36'5618.8 200 / 101017.710.8 27.024.126.0
2019-Jun-14 08:00N 27°54' W 088°54'11715.0 120 / 101016.6 28.025.230.0
2019-Jun-14 00:09N 29°38' W 089°56'513.5
2019-Jun-13 23:47N 29°42' W 089°59'514.7
2019-Jun-13 23:27N 29°47' W 090°01'714.8
2019-Jun-13 22:59N 29°53' W 089°58'3 6.4
2019-Jun-13 22:29N 29°55' W 089°56'714.1
2019-Jun-13 22:00N 29°58' W 090°03'1 2.6
2019-Jun-13 21:30N 29°56' W 090°04'0 0.0
2019-Jun-13 21:00N 29°56' W 090°04'0 0.0
2019-Jun-13 20:30N 29°56' W 090°04'0 0.0
2019-Jun-13 19:59N 29°56' W 090°04'0 0.0
2019-Jun-13 19:29N 29°56' W 090°04'0 0.0
2019-Jun-13 18:59N 29°56' W 090°04'0 0.0
2019-Jun-13 18:29N 29°56' W 090°04'0 0.0
2019-Jun-13 17:58N 29°56' W 090°04'0 0.0
2019-Jun-13 17:28N 29°56' W 090°04'0 0.0
2019-Jun-13 16:58N 29°56' W 090°04'0 0.0
2019-Jun-13 16:28N 29°56' W 090°04'0 0.0
2019-Jun-13 15:58N 29°56' W 090°04'0 0.0
2019-Jun-13 15:30N 29°56' W 090°04'0 0.0
2019-Jun-13 15:00N 29°56' W 090°04'0 0.0
2019-Jun-13 14:30N 29°56' W 090°04'0 0.0
2019-Jun-13 14:00N 29°56' W 090°04'0 0.0
2019-Jun-13 13:30N 29°56' W 090°04'0 0.0
2019-Jun-13 12:58N 29°56' W 090°04'0 0.0
2019-Jun-13 12:27N 29°56' W 090°04'0 0.2
2019-Jun-13 11:59N 29°56' W 090°04'3 7.2
2019-Jun-13 11:30N 29°56' W 089°60'611.0
2019-Jun-13 11:00N 29°53' W 089°54'4 8.2
2019-Jun-13 10:30N 29°52' W 089°59'712.4
2019-Jun-13 09:59N 29°46' W 090°01'611.7
2019-Jun-13 09:30N 29°41' W 089°58'611.2
2019-Jun-13 08:57N 29°37' W 089°53'612.2
2019-Jun-13 08:30N 29°34' W 089°47'45714.4
2019-Jun-12 00:48N 21°57' W 089°26'915.6
2019-Jun-12 00:14N 21°49' W 089°31'615.5
2019-Jun-11 23:51N 21°44' W 089°34'515.5
2019-Jun-11 23:30N 21°39' W 089°36'915.5
2019-Jun-11 22:55N 21°30' W 089°40'513.2
2019-Jun-11 22:30N 21°25' W 089°41'5 9.6
2019-Jun-11 22:00N 21°21' W 089°41'0 0.0
2019-Jun-11 21:29N 21°21' W 089°41'0 0.0
2019-Jun-11 20:56N 21°21' W 089°41'0 0.0
2019-Jun-11 20:29N 21°21' W 089°41'0 0.0
2019-Jun-11 19:59N 21°21' W 089°41'0 0.0
2019-Jun-11 19:28N 21°21' W 089°41'0 0.0
2019-Jun-11 18:58N 21°21' W 089°41'0 0.0
2019-Jun-11 18:28N 21°21' W 089°41'0 0.0
2019-Jun-11 17:58N 21°21' W 089°41'0 0.0
2019-Jun-11 17:28N 21°21' W 089°41'0 0.0
2019-Jun-11 17:00N 21°21' W 089°41'0 0.0
2019-Jun-11 16:30N 21°21' W 089°41'0 0.0
2019-Jun-11 15:57N 21°21' W 089°41'0 0.0
2019-Jun-11 15:30N 21°21' W 089°41'0 0.0
2019-Jun-11 14:59N 21°21' W 089°41'0 0.0
2019-Jun-11 14:29N 21°21' W 089°41'0 0.0
2019-Jun-11 13:59N 21°21' W 089°41'0 0.2
2019-Jun-11 13:30N 21°20' W 089°41'5 9.7
2019-Jun-11 13:00N 21°25' W 089°41'612.7
2019-Jun-11 12:31N 21°31' W 089°38'714.9
2019-Jun-11 12:00N 21°37' W 089°33'815.3
2019-Jun-11 11:30N 21°43' W 089°28'918.5
2019-Jun-11 11:00N 21°44' W 089°18'5117.0
2019-Jun-11 08:00N 21°54' W 088°24'11212.5 160 / 151014.7 28.025.227.0
2019-Jun-10 23:00N 20°36' W 086°57'510.9
2019-Jun-10 22:30N 20°32' W 087°00'3 6.8
2019-Jun-10 22:00N 20°29' W 086°59'0 0.0
2019-Jun-10 21:29N 20°29' W 086°59'0 0.0
2019-Jun-10 20:59N 20°29' W 086°59'0 0.0
2019-Jun-10 20:29N 20°29' W 086°59'0 0.0
2019-Jun-10 19:58N 20°29' W 086°59'0 0.0
2019-Jun-10 19:28N 20°29' W 086°59'0 0.0
2019-Jun-10 18:55N 20°29' W 086°59'0 0.0
2019-Jun-10 18:28N 20°29' W 086°59'0 0.0
2019-Jun-10 17:48N 20°29' W 086°59'0 0.0
2019-Jun-10 17:30N 20°29' W 086°59'0 0.0
2019-Jun-10 17:00N 20°29' W 086°59'0 0.0
2019-Jun-10 16:30N 20°29' W 086°59'0 0.0
2019-Jun-10 16:00N 20°29' W 086°59'0 0.0
2019-Jun-10 15:29N 20°29' W 086°59'0 0.0
2019-Jun-10 14:59N 20°29' W 086°59'0 0.0
2019-Jun-10 14:29N 20°29' W 086°59'0 0.0
2019-Jun-10 13:59N 20°29' W 086°59'0 0.0
2019-Jun-10 13:26N 20°29' W 086°59'0 0.0
2019-Jun-10 12:59N 20°29' W 086°59'1 1.8
2019-Jun-10 12:30N 20°29' W 086°59'4 8.0
2019-Jun-10 12:00N 20°33' W 086°60'510.4
2019-Jun-10 11:30N 20°38' W 086°57'510.0
2019-Jun-10 10:58N 20°42' W 086°53'55915.6
2019-Jun-08 23:05N 29°37' W 089°54'214.2
2019-Jun-08 22:56N 29°38' W 089°56'713.7
2019-Jun-08 22:27N 29°44' W 089°60'714.5
2019-Jun-08 22:00N 29°51' W 089°59'5 9.9
2019-Jun-08 21:30N 29°53' W 089°54'612.7
2019-Jun-08 21:00N 29°57' W 090°00'3 5.8
2019-Jun-08 20:30N 29°56' W 090°04'0 0.0
2019-Jun-08 19:58N 29°56' W 090°04'0 0.0
2019-Jun-08 19:27N 29°56' W 090°04'0 0.0
2019-Jun-08 18:58N 29°56' W 090°04'0 0.0
2019-Jun-08 18:28N 29°56' W 090°04'0 0.0
2019-Jun-08 18:00N 29°56' W 090°04'0 0.0
2019-Jun-08 17:30N 29°56' W 090°04'0 0.0
2019-Jun-08 17:00N 29°56' W 090°04'0 0.0
2019-Jun-08 16:30N 29°56' W 090°04'0 0.0
2019-Jun-08 15:56N 29°56' W 090°04'0 0.0
2019-Jun-08 15:29N 29°56' W 090°04'0 0.0
2019-Jun-08 14:59N 29°56' W 090°04'0 0.0
2019-Jun-08 14:26N 29°56' W 090°04'0 0.0
2019-Jun-08 13:59N 29°56' W 090°04'0 0.0
2019-Jun-08 13:28N 29°56' W 090°04'0 0.0
2019-Jun-08 12:58N 29°56' W 090°04'0 0.0
2019-Jun-08 12:28N 29°56' W 090°04'0 0.0
2019-Jun-08 11:58N 29°56' W 090°04'0 0.9
2019-Jun-08 11:30N 29°57' W 090°04'4 8.0
2019-Jun-08 11:00N 29°56' W 089°59'5 9.8
2019-Jun-08 10:30N 29°53' W 089°54'4 8.2
2019-Jun-08 10:00N 29°52' W 089°59'612.5
2019-Jun-08 09:30N 29°46' W 090°01'611.8
2019-Jun-08 09:00N 29°41' W 089°58'610.4
2019-Jun-08 08:27N 29°37' W 089°53'49613.2
2019-Jun-06 18:50N 21°21' W 089°41'0 0.0
2019-Jun-06 18:29N 21°21' W 089°41'0 0.0
2019-Jun-06 17:58N 21°21' W 089°41'0 0.0
2019-Jun-06 17:28N 21°21' W 089°41'0 0.0
2019-Jun-06 16:58N 21°21' W 089°41'0 0.0
2019-Jun-06 16:28N 21°21' W 089°41'0 0.0
2019-Jun-06 15:58N 21°21' W 089°41'0 0.0
2019-Jun-06 15:30N 21°21' W 089°41'0 0.0
2019-Jun-06 15:00N 21°21' W 089°41'0 0.0
2019-Jun-06 14:30N 21°21' W 089°41'0 0.0
2019-Jun-06 14:00N 21°21' W 089°41'0 0.2
2019-Jun-06 13:30N 21°20' W 089°41'5 9.3
2019-Jun-06 13:01N 21°25' W 089°41'612.4
2019-Jun-06 12:30N 21°31' W 089°38'713.8
2019-Jun-06 12:00N 21°36' W 089°34'915.6
2019-Jun-06 11:27N 21°42' W 089°27'716.1
2019-Jun-06 10:59N 21°44' W 089°20'916.1
2019-Jun-06 10:27N 21°47' W 089°10'818.4
2019-Jun-06 10:00N 21°48' W 089°02'1018.6
2019-Jun-06 09:29N 21°51' W 088°52'1118.7
2019-Jun-06 08:54N 21°53' W 088°41'12312.1
2019-Jun-05 22:45N 20°36' W 086°58'418.1
2019-Jun-05 22:30N 20°33' W 087°00'  

Dump ship's entire track history